»·PEaware :: N969DA KPDX-KEUG

N969DA :: KPDX-KEUG

FLIGHT INFORMATION

Flight Status: Arrived
Operator: Privately registered:
United States
More flights under this callsign
Pilot: Anonymous 20880 (20880)
Aircraft: Unknown
(DA62)
More flights by this aircraft type
Origin: KPDX Portland Intl
United States
Destination: KEUG Mahlon Sweet
United States
More flights between these airports :: More routes between these airports
Route: OSWEG V23 EUG
File this flight plan on PilotEdge
Remarks:
Altitude:
(Current/Filed)
6,000ft
Speed:
(Current/Filed)
140kts
Departed: 18-Dec-18 01:29 PM
Arrived: 18-Dec-18 02:29 PM
Distance/Time
Traveled:
92nm/1:00
Distance/Time
To Go:
Arrived

Flight Plot

Page will automatically refresh every two minutes.

Flight plan parsing failed; only flown route is shown


Map Options




Map Legend


Flown Route
Filed Route
Departure Airport
Arrival Airport
Navaid (VOR, NDB)
Fix

Horizontal Profiles

Position Reports

Time Latitude Longitude Heading Altitude Ground
Speed
18-Dec-18 13:09 45.586253 -122.579977 32 33ft 0kts
18-Dec-18 13:10 45.586253 -122.579977 32 33ft 0kts
18-Dec-18 13:11 45.586253 -122.579977 32 33ft 0kts
18-Dec-18 13:12 45.586253 -122.579977 32 33ft 0kts
18-Dec-18 13:13 45.586253 -122.579977 32 33ft 0kts
18-Dec-18 13:14 45.586253 -122.579977 32 33ft 0kts
18-Dec-18 13:15 45.586253 -122.579977 32 33ft 0kts
18-Dec-18 13:16 45.586253 -122.579977 32 33ft 0kts
18-Dec-18 13:17 45.586253 -122.579977 32 33ft 0kts
18-Dec-18 13:18 45.586253 -122.579977 32 33ft 0kts
18-Dec-18 13:19 45.586253 -122.579977 32 33ft 0kts
18-Dec-18 13:20 45.586253 -122.579977 32 33ft 0kts
18-Dec-18 13:21 45.586253 -122.579977 32 33ft 0kts
18-Dec-18 13:22 45.586253 -122.579977 32 33ft 0kts
18-Dec-18 13:23 45.587146 -122.581613 297 33ft 18kts
18-Dec-18 13:24 45.586770 -122.578221 119 33ft 19kts
18-Dec-18 13:25 45.583718 -122.570401 117 33ft 24kts
18-Dec-18 13:26 45.583465 -122.569122 48 33ft 0kts
18-Dec-18 13:27 45.583840 -122.569044 351 33ft 7kts
18-Dec-18 13:28 45.594163 -122.592289 298 665ft 101kts
18-Dec-18 13:29 45.608390 -122.626521 285 1925ft 104kts
18-Dec-18 13:30 45.618334 -122.664255 281 3203ft 104kts
18-Dec-18 13:31 45.621221 -122.701947 262 4583ft 90kts
18-Dec-18 13:32 45.616626 -122.731514 166 5871ft 93kts
18-Dec-18 13:33 45.591228 -122.709105 184 6104ft 126kts
18-Dec-18 13:34 45.562276 -122.707111 185 6129ft 114kts
18-Dec-18 13:35 45.530299 -122.705016 184 5996ft 125kts
18-Dec-18 13:36 45.498124 -122.702727 183 5999ft 128kts
18-Dec-18 13:37 45.469254 -122.700779 184 6001ft 140kts
18-Dec-18 13:38 45.444076 -122.706851 203 6000ft 137kts
18-Dec-18 13:39 45.422267 -122.720794 202 5998ft 139kts
18-Dec-18 13:40 45.397931 -122.730140 199 6006ft 139kts
18-Dec-18 13:41 45.372056 -122.740144 200 6011ft 139kts
18-Dec-18 13:42 45.350100 -122.748608 200 6014ft 139kts
18-Dec-18 13:43 45.328768 -122.756853 199 6018ft 139kts
18-Dec-18 13:44 45.302757 -122.766897 199 6022ft 138kts
18-Dec-18 13:45 45.274916 -122.777625 199 6026ft 138kts
18-Dec-18 13:46 45.246874 -122.788419 199 6026ft 138kts
18-Dec-18 13:47 45.219929 -122.798785 199 6026ft 138kts
18-Dec-18 13:48 45.196005 -122.807983 199 6026ft 138kts
18-Dec-18 13:49 45.165690 -122.819622 199 6026ft 138kts
18-Dec-18 13:50 45.129624 -122.833430 199 6026ft 138kts
18-Dec-18 13:51 45.098739 -122.845176 199 6027ft 137kts
18-Dec-18 13:52 45.069699 -122.856257 199 6030ft 137kts
18-Dec-18 13:53 45.033126 -122.870224 199 6033ft 135kts
18-Dec-18 13:54 45.001030 -122.882473 199 6037ft 134kts
18-Dec-18 13:55 44.979979 -122.890500 199 6039ft 133kts
18-Dec-18 13:56 44.959772 -122.898203 198 6028ft 133kts
18-Dec-18 13:57 44.939514 -122.905919 198 5996ft 133kts
18-Dec-18 13:58 44.917894 -122.914139 198 5996ft 132kts
18-Dec-18 13:59 44.890252 -122.924644 198 6011ft 131kts
18-Dec-18 14:00 44.864038 -122.934605 198 6011ft 132kts
18-Dec-18 14:01 44.843923 -122.942238 198 6011ft 132kts
18-Dec-18 14:02 44.824663 -122.949542 198 6011ft 132kts
18-Dec-18 14:03 44.804812 -122.957064 198 6011ft 132kts
18-Dec-18 14:04 44.783269 -122.965209 198 6011ft 132kts
18-Dec-18 14:05 44.758408 -122.974599 199 6013ft 133kts
18-Dec-18 14:07 44.729590 -122.985481 200 6015ft 133kts
18-Dec-18 14:08 44.698279 -122.997299 201 6018ft 134kts
18-Dec-18 14:09 44.673085 -123.006800 202 6020ft 135kts
18-Dec-18 14:10 44.640726 -123.018994 203 6024ft 136kts
18-Dec-18 14:11 44.603964 -123.032850 204 6028ft 139kts
18-Dec-18 14:12 44.567128 -123.046789 205 5800ft 126kts
18-Dec-18 14:13 44.531849 -123.060186 204 4803ft 136kts
18-Dec-18 14:14 44.494719 -123.074120 201 3810ft 140kts
18-Dec-18 14:15 44.457750 -123.087882 201 3052ft 131kts
18-Dec-18 14:16 44.423158 -123.100847 201 2996ft 134kts
18-Dec-18 14:17 44.387692 -123.114078 200 2982ft 130kts
18-Dec-18 14:18 44.352570 -123.127197 200 2699ft 132kts
18-Dec-18 14:19 44.317152 -123.140382 199 2196ft 133kts
18-Dec-18 14:20 44.282743 -123.153164 199 1992ft 121kts
18-Dec-18 14:21 44.251358 -123.164840 200 1993ft 114kts
18-Dec-18 14:22 44.220946 -123.176148 200 1994ft 113kts
18-Dec-18 14:23 44.190659 -123.187375 200 1994ft 112kts
18-Dec-18 14:24 44.160547 -123.198531 200 2000ft 112kts
18-Dec-18 14:25 44.130411 -123.209680 200 1996ft 112kts
18-Dec-18 14:26 44.136563 -123.235958 356 2000ft 133kts
18-Dec-18 14:26 44.168817 -123.232237 6 818ft 140kts
18-Dec-18 14:28 44.151044 -123.218937 192 711ft 98kts
18-Dec-18 14:29 44.130196 -123.218455 117 358ft 22kts
18-Dec-18 14:30 44.128567 -123.217142 179 358ft 13kts
18-Dec-18 14:30 44.124125 -123.216751 141 363ft 20kts
18-Dec-18 14:32 44.121947 -123.212072 37 365ft 0kts
18-Dec-18 14:32 44.121947 -123.212072 37 365ft 0kts
18-Dec-18 14:33 44.121947 -123.212072 37 365ft 0kts

Navigation Log

Ident Type
Flight plan parsing failed, navigation log unavailable